createdAt,value
2024-01-07T00:02:41.794Z,41.85
2024-01-07T00:04:44.525Z,19.05
2024-01-07T00:06:48.120Z,41.33
2024-01-07T00:08:50.201Z,41.05
2024-01-07T00:10:54.578Z,42.67
2024-01-07T00:12:56.801Z,43.55
2024-01-07T00:14:59.766Z,45.90
2024-01-07T00:17:01.629Z,52.58
2024-01-07T00:19:03.950Z,36.17
2024-01-07T00:21:06.157Z,46.00
2024-01-07T00:25:09.987Z,25.35
2024-01-07T00:29:13.897Z,50.38
2024-01-07T00:33:17.900Z,42.80
2024-01-07T00:37:22.109Z,30.50
2024-01-07T00:41:26.150Z,43.78
2024-01-07T00:45:30.020Z,37.88
2024-01-07T00:49:33.875Z,42.33
2024-01-07T00:53:37.614Z,40.35
2024-01-07T00:55:39.576Z,52.63
2024-01-07T00:57:42.176Z,62.05
2024-01-07T00:59:44.137Z,57.58
2024-01-07T01:01:46.215Z,51.30
2024-01-07T01:05:50.552Z,59.22
2024-01-07T01:09:55.231Z,33.92
2024-01-07T01:13:59.045Z,24.58
2024-01-07T01:16:00.997Z,30.08
2024-01-07T01:20:05.678Z,61.15
2024-01-07T01:22:07.810Z,65.40
2024-01-07T01:24:09.856Z,46.53
2024-01-07T01:28:13.735Z,71.50
2024-01-07T01:32:17.831Z,66.53
2024-01-07T01:36:21.654Z,56.78
2024-01-07T01:38:23.629Z,52.95
2024-01-07T01:40:25.634Z,38.38
2024-01-07T01:42:27.649Z,56.00
2024-01-07T01:46:31.569Z,55.65
2024-01-07T01:50:35.704Z,44.53
2024-01-07T01:52:38.109Z,52.47
2024-01-07T01:54:40.087Z,49.70
2024-01-07T01:58:44.044Z,44.00
2024-01-07T02:02:48.210Z,29.27
2024-01-07T02:06:52.060Z,29.02
2024-01-07T02:10:55.914Z,52.92
2024-01-07T02:12:59.140Z,31.00
2024-01-07T02:15:01.129Z,32.60
2024-01-07T02:17:03.065Z,39.95
2024-01-07T02:19:06.512Z,50.47
2024-01-07T02:21:10.176Z,47.80
2024-01-07T02:23:12.099Z,35.88
2024-01-07T02:25:14.128Z,33.88
2024-01-07T02:29:18.076Z,19.13
2024-01-07T02:31:20.111Z,24.98
2024-01-07T02:35:24.148Z,23.60
2024-01-07T02:37:26.038Z,42.50
2024-01-07T02:39:28.028Z,34.63
2024-01-07T02:41:30.042Z,30.35
2024-01-07T02:43:32.008Z,30.88
2024-01-07T02:45:33.968Z,39.85
2024-01-07T02:49:37.959Z,38.20
2024-01-07T02:51:40.059Z,37.60
2024-01-07T02:55:43.759Z,30.48
2024-01-07T02:57:45.759Z,35.10
2024-01-07T03:01:49.795Z,26.17
2024-01-07T03:07:56.350Z,13.38
2024-01-07T03:12:00.259Z,34.45
2024-01-07T03:16:04.395Z,25.80
2024-01-07T03:18:06.570Z,19.35
2024-01-07T03:20:09.124Z,32.65
2024-01-07T03:22:11.206Z,29.50
2024-01-07T03:24:13.118Z,29.83
2024-01-07T03:26:15.418Z,25.98
2024-01-07T03:28:17.408Z,25.85
2024-01-07T03:32:21.250Z,41.75
2024-01-07T03:34:23.398Z,25.42
2024-01-07T03:36:26.120Z,35.10
2024-01-07T03:38:28.119Z,25.77
2024-01-07T03:42:31.987Z,21.55
2024-01-07T03:46:35.794Z,29.38
2024-01-07T03:48:37.882Z,29.85
2024-01-07T03:50:41.299Z,39.40
2024-01-07T03:52:43.347Z,45.50
2024-01-07T03:56:47.293Z,48.05
2024-01-07T03:58:49.239Z,43.58
2024-01-07T04:00:51.204Z,70.22
2024-01-07T04:04:55.106Z,21.10
2024-01-07T04:06:57.485Z,52.13
2024-01-07T04:08:59.449Z,32.15
2024-01-07T04:13:06.083Z,53.22
2024-01-07T04:15:08.355Z,35.22
2024-01-07T04:17:10.363Z,56.75
2024-01-07T04:21:14.482Z,37.33
2024-01-07T04:25:18.436Z,45.90
2024-01-07T04:29:22.341Z,23.88
2024-01-07T04:33:26.433Z,39.35
2024-01-07T04:35:28.478Z,46.40
2024-01-07T04:39:32.374Z,46.63
2024-01-07T04:41:34.506Z,36.97
2024-01-07T04:43:38.014Z,38.67
2024-01-07T04:45:39.950Z,51.53
2024-01-07T04:49:43.794Z,55.45
2024-01-07T04:53:47.929Z,28.30
2024-01-07T04:55:49.883Z,46.17
2024-01-07T04:59:54.866Z,45.95
2024-01-07T05:01:57.587Z,45.55
2024-01-07T05:03:59.659Z,27.25
2024-01-07T05:06:03.034Z,40.45
2024-01-07T05:08:05.272Z,43.03
2024-01-07T05:10:07.890Z,39.20
2024-01-07T05:12:09.886Z,61.25
2024-01-07T05:16:21.557Z,49.20
2024-01-07T05:18:24.515Z,30.05
2024-01-07T05:20:26.537Z,35.00
2024-01-07T05:24:31.764Z,37.58
2024-01-07T05:26:43.040Z,27.80
2024-01-07T05:28:45.027Z,51.20
2024-01-07T05:32:49.078Z,24.80
2024-01-07T05:34:51.820Z,50.05
2024-01-07T05:36:53.964Z,31.23
2024-01-07T05:40:57.819Z,32.30
2024-01-07T05:42:59.854Z,49.60
2024-01-07T05:45:01.988Z,31.85
2024-01-07T05:47:05.273Z,40.28
2024-01-07T05:49:07.487Z,49.25
2024-01-07T05:51:10.283Z,35.53
2024-01-07T05:53:12.205Z,44.13
2024-01-07T05:55:14.374Z,51.35
2024-01-07T05:57:16.377Z,40.25
2024-01-07T06:01:23.472Z,26.55
2024-01-07T06:03:25.787Z,22.83
2024-01-07T06:05:27.813Z,24.17
2024-01-07T06:07:30.250Z,36.00
2024-01-07T06:09:32.271Z,39.58
2024-01-07T06:13:36.077Z,30.27
2024-01-07T06:17:39.806Z,37.33
2024-01-07T06:19:41.865Z,47.30
2024-01-07T06:23:46.171Z,58.50
2024-01-07T06:25:48.088Z,31.60
2024-01-07T06:27:50.071Z,31.63
2024-01-07T06:31:53.976Z,33.80
2024-01-07T06:33:59.038Z,23.63
2024-01-07T06:36:02.208Z,21.67
2024-01-07T06:38:05.531Z,35.10
2024-01-07T06:40:08.050Z,16.65
2024-01-07T06:42:09.947Z,14.60
2024-01-07T06:44:11.975Z,16.85
2024-01-07T06:48:16.001Z,27.90
2024-01-07T06:52:22.168Z,20.58
2024-01-07T06:54:24.160Z,22.40
2024-01-07T06:58:28.000Z,37.13
2024-01-07T07:00:29.965Z,24.08
2024-01-07T07:04:33.752Z,37.45
2024-01-07T07:08:40.164Z,28.25
2024-01-07T07:12:43.958Z,28.98
2024-01-07T07:16:47.777Z,23.88
2024-01-07T07:18:49.847Z,24.70
2024-01-07T07:22:53.650Z,19.10
2024-01-07T07:24:56.750Z,38.05
2024-01-07T07:27:01.071Z,16.50
2024-01-07T07:31:05.430Z,14.77
2024-01-07T07:33:07.564Z,29.15
2024-01-07T07:35:09.616Z,23.27
2024-01-07T07:39:15.363Z,24.05
2024-01-07T07:41:17.411Z,12.52
2024-01-07T07:45:22.570Z,21.00
2024-01-07T07:49:28.728Z,31.02
2024-01-07T07:51:31.441Z,20.67
2024-01-07T07:53:33.399Z,24.67
2024-01-07T07:57:37.611Z,32.15
2024-01-07T07:59:39.524Z,21.08
2024-01-07T08:01:41.557Z,23.08
2024-01-07T08:05:45.674Z,24.98
2024-01-07T08:09:49.808Z,28.48
2024-01-07T08:13:53.571Z,27.10
2024-01-07T08:17:58.792Z,34.00
2024-01-07T08:22:05.816Z,26.75
2024-01-07T08:24:08.121Z,34.88
2024-01-07T08:26:10.121Z,34.10
2024-01-07T08:30:14.983Z,30.40
2024-01-07T08:32:17.106Z,22.50
2024-01-07T08:36:20.954Z,20.75
2024-01-07T08:40:25.602Z,23.35
2024-01-07T08:42:31.270Z,20.65
2024-01-07T08:44:33.218Z,22.55
2024-01-07T08:46:35.927Z,30.08
2024-01-07T08:48:38.107Z,17.77
2024-01-07T08:50:40.306Z,23.50
2024-01-07T08:52:42.289Z,27.42
2024-01-07T08:56:46.944Z,28.23
2024-01-07T08:58:48.921Z,17.92
2024-01-07T09:02:56.483Z,41.38
2024-01-07T09:04:59.123Z,32.00
2024-01-07T09:07:01.480Z,25.20
2024-01-07T09:09:07.064Z,14.68
2024-01-07T09:11:12.328Z,20.98
2024-01-07T09:13:14.436Z,27.95
2024-01-07T09:15:19.915Z,23.17
2024-01-07T09:17:22.721Z,15.13
2024-01-07T09:19:24.884Z,23.90
2024-01-07T09:21:27.028Z,29.05
2024-01-07T09:25:31.019Z,18.95
2024-01-07T09:27:34.368Z,30.70
2024-01-07T09:29:36.402Z,39.10
2024-01-07T09:33:40.663Z,45.53
2024-01-07T09:35:44.893Z,62.33
2024-01-07T09:37:46.981Z,20.73
2024-01-07T09:39:49.060Z,20.73
2024-01-07T09:41:51.164Z,28.30
2024-01-07T09:45:58.995Z,17.52
2024-01-07T09:48:01.142Z,18.73
2024-01-07T09:50:03.135Z,18.52
2024-01-07T09:54:14.950Z,18.83
2024-01-07T09:56:30.871Z,25.17
2024-01-07T09:58:32.943Z,26.77
2024-01-07T10:00:35.697Z,14.45
2024-01-07T10:02:37.741Z,21.40
2024-01-07T10:06:42.528Z,17.50
2024-01-07T10:10:46.313Z,24.85
2024-01-07T10:14:50.532Z,25.13
2024-01-07T10:16:55.209Z,23.33
2024-01-07T10:18:58.630Z,22.77
2024-01-07T10:21:05.104Z,24.20
2024-01-07T10:23:09.130Z,20.85
2024-01-07T10:25:11.169Z,23.63
2024-01-07T10:27:14.444Z,25.35
2024-01-07T10:29:17.087Z,22.05
2024-01-07T10:31:20.007Z,28.63
2024-01-07T10:33:24.157Z,23.38
2024-01-07T10:35:36.964Z,19.58
2024-01-07T10:37:39.161Z,21.52
2024-01-07T10:39:41.125Z,33.65
2024-01-07T10:43:49.302Z,14.45
2024-01-07T10:45:52.042Z,23.38
2024-01-07T10:47:59.331Z,33.10
2024-01-07T10:50:04.437Z,34.47
2024-01-07T10:52:10.121Z,23.63
2024-01-07T10:54:14.829Z,15.43
2024-01-07T10:56:21.293Z,29.88
2024-01-07T10:58:24.117Z,28.98
2024-01-07T11:00:26.013Z,28.05
2024-01-07T11:04:41.645Z,12.25
2024-01-07T11:06:56.336Z,36.70
2024-01-07T11:09:15.699Z,18.10
2024-01-07T11:11:26.844Z,21.08
2024-01-07T11:13:46.623Z,22.02
2024-01-07T11:15:52.094Z,13.23
2024-01-07T11:17:54.096Z,16.55
2024-01-07T11:22:30.267Z,16.50
2024-01-07T11:24:42.524Z,16.33
2024-01-07T11:26:47.611Z,11.43
2024-01-07T11:28:51.700Z,10.05
2024-01-07T11:30:55.658Z,11.57
2024-01-07T11:33:02.624Z,14.25
2024-01-07T11:35:05.608Z,28.73
2024-01-07T11:37:11.305Z,10.90
2024-01-07T11:39:13.570Z,22.48
2024-01-07T11:41:18.493Z,11.68
2024-01-07T11:43:20.558Z,13.80
2024-01-07T11:45:23.280Z,17.30
2024-01-07T11:47:29.185Z,18.20
2024-01-07T11:49:31.304Z,25.45
2024-01-07T11:51:34.057Z,18.90
2024-01-07T11:53:36.340Z,27.88
2024-01-07T11:55:38.621Z,25.85
2024-01-07T11:57:40.567Z,29.55
2024-01-07T12:01:47.750Z,21.40
2024-01-07T12:03:51.188Z,33.88
2024-01-07T12:05:53.337Z,25.38
2024-01-07T12:07:55.441Z,14.68
2024-01-07T12:09:59.488Z,20.05
2024-01-07T12:12:02.305Z,13.93
2024-01-07T12:14:05.080Z,11.73
2024-01-07T12:16:08.368Z,16.45
2024-01-07T12:18:10.951Z,15.98
2024-01-07T12:20:12.927Z,13.55
2024-01-07T12:24:16.941Z,19.92
2024-01-07T12:28:22.922Z,21.42
2024-01-07T12:30:26.284Z,14.18
2024-01-07T12:32:29.355Z,16.67
2024-01-07T12:34:32.105Z,17.45
2024-01-07T12:36:35.428Z,15.80
2024-01-07T12:38:40.465Z,22.83
2024-01-07T12:40:42.568Z,21.75
2024-01-07T12:42:48.493Z,21.60
2024-01-07T12:44:50.537Z,29.80
2024-01-07T12:48:55.327Z,15.60
2024-01-07T12:50:57.853Z,14.85
2024-01-07T12:53:00.140Z,16.55
2024-01-07T12:55:02.464Z,15.55
2024-01-07T12:57:04.817Z,24.58
2024-01-07T12:59:06.780Z,17.05
2024-01-07T13:03:18.426Z,13.60
2024-01-07T13:05:20.614Z,11.25
2024-01-07T13:07:24.490Z,21.10
2024-01-07T13:09:26.603Z,19.77
2024-01-07T13:13:30.537Z,18.92
2024-01-07T13:15:32.766Z,13.50
2024-01-07T13:17:34.884Z,15.23
2024-01-07T13:19:37.012Z,12.80
2024-01-07T13:21:42.617Z,12.68
2024-01-07T13:23:45.413Z,10.90
2024-01-07T13:25:47.479Z,14.35
2024-01-07T13:27:49.404Z,23.33
2024-01-07T13:31:53.611Z,23.20
2024-01-07T13:33:55.750Z,9.77
2024-01-07T13:35:57.719Z,22.42
2024-01-07T13:40:02.523Z,17.15
2024-01-07T13:42:05.043Z,15.60
2024-01-07T13:44:08.440Z,21.33
2024-01-07T13:46:10.541Z,15.45
2024-01-07T13:48:12.652Z,15.13
2024-01-07T13:50:14.794Z,14.88
2024-01-07T13:52:17.143Z,11.65
2024-01-07T13:54:19.106Z,10.73
2024-01-07T13:58:24.213Z,17.10
2024-01-07T14:00:26.105Z,25.42
2024-01-07T14:02:28.095Z,22.23
2024-01-07T14:06:32.843Z,12.82
2024-01-07T14:08:34.863Z,10.15
2024-01-07T14:12:40.063Z,17.98
2024-01-07T14:14:42.053Z,21.08
2024-01-07T14:18:45.899Z,12.45
2024-01-07T14:20:47.953Z,20.00
2024-01-07T14:24:51.832Z,27.20
2024-01-07T14:29:09.213Z,12.23
2024-01-07T14:31:18.701Z,9.18
2024-01-07T14:33:20.910Z,18.60
2024-01-07T14:35:24.001Z,13.23
2024-01-07T14:37:27.800Z,23.98
2024-01-07T14:39:29.891Z,18.30
2024-01-07T14:41:31.823Z,30.88
2024-01-07T14:45:36.560Z,12.32
2024-01-07T14:47:38.584Z,19.33
2024-01-07T14:49:40.719Z,35.88
2024-01-07T14:51:42.708Z,24.05
2024-01-07T14:55:46.653Z,19.33
2024-01-07T14:57:49.191Z,11.43
2024-01-07T14:59:51.146Z,18.80
2024-01-07T15:03:57.076Z,27.63
2024-01-07T15:05:59.428Z,24.38
2024-01-07T15:08:02.114Z,25.20
2024-01-07T15:10:04.276Z,33.25
2024-01-07T15:12:06.605Z,20.27
2024-01-07T15:14:09.409Z,10.75
2024-01-07T15:16:11.533Z,16.63
2024-01-07T15:18:14.209Z,9.27
2024-01-07T15:20:16.550Z,17.50
2024-01-07T15:22:18.668Z,20.48
2024-01-07T15:24:20.676Z,26.55
2024-01-07T15:26:22.752Z,34.45
2024-01-07T15:30:26.830Z,9.75
2024-01-07T15:32:29.123Z,11.73
2024-01-07T15:34:31.324Z,19.83
2024-01-07T15:36:37.882Z,22.23
2024-01-07T15:38:39.809Z,20.83
2024-01-07T15:42:43.662Z,23.88
2024-01-07T15:44:45.581Z,13.40
2024-01-07T15:48:49.808Z,9.88
2024-01-07T15:50:51.906Z,12.68
2024-01-07T15:52:53.874Z,20.58
2024-01-07T15:56:57.793Z,17.92
2024-01-07T16:01:04.783Z,20.30
2024-01-07T16:03:07.089Z,21.85
2024-01-07T16:05:09.811Z,13.13
2024-01-07T16:07:13.400Z,22.58
2024-01-07T16:09:15.501Z,17.90
2024-01-07T16:11:19.029Z,19.60
2024-01-07T16:13:21.202Z,18.40
2024-01-07T16:15:23.157Z,10.05
2024-01-07T16:19:27.332Z,18.83
2024-01-07T16:21:29.858Z,13.20
2024-01-07T16:23:32.244Z,27.58
2024-01-07T16:25:34.351Z,14.77
2024-01-07T16:27:36.768Z,24.75
2024-01-07T16:29:44.934Z,13.93
2024-01-07T16:31:48.272Z,13.55
2024-01-07T16:35:52.230Z,22.15
2024-01-07T16:37:54.178Z,15.80
2024-01-07T16:41:58.784Z,13.20
2024-01-07T16:44:00.825Z,7.93
2024-01-07T16:46:06.987Z,15.73
2024-01-07T16:48:09.141Z,8.45
2024-01-07T16:50:21.593Z,11.63
2024-01-07T16:52:26.684Z,16.05
2024-01-07T16:54:30.223Z,10.32
2024-01-07T16:56:32.189Z,13.70
2024-01-07T16:58:34.321Z,17.02
2024-01-07T17:00:36.306Z,32.78
2024-01-07T17:02:38.349Z,19.88
2024-01-07T17:04:40.493Z,17.17
2024-01-07T17:06:42.505Z,15.68
2024-01-07T17:10:47.303Z,13.23
2024-01-07T17:12:49.298Z,20.02
2024-01-07T17:16:56.241Z,15.80
2024-01-07T17:18:59.387Z,24.35
2024-01-07T17:21:01.434Z,11.70
2024-01-07T17:23:03.479Z,14.80
2024-01-07T17:25:06.860Z,12.25
2024-01-07T17:27:08.808Z,10.50
2024-01-07T17:29:11.853Z,18.35
2024-01-07T17:31:14.408Z,12.48
2024-01-07T17:33:16.509Z,20.55
2024-01-07T17:35:18.631Z,19.38
2024-01-07T17:37:20.882Z,13.15
2024-01-07T17:39:22.840Z,12.65
2024-01-07T17:43:27.056Z,11.85
2024-01-07T17:45:29.580Z,15.23
2024-01-07T17:47:35.839Z,10.88
2024-01-07T17:49:38.028Z,9.38
2024-01-07T17:51:45.008Z,15.38
2024-01-07T17:53:46.982Z,12.23
2024-01-07T17:57:50.916Z,8.52
2024-01-07T17:59:53.546Z,15.98
2024-01-07T18:01:56.510Z,13.98
2024-01-07T18:03:58.497Z,8.93
2024-01-07T18:08:05.184Z,13.85
2024-01-07T18:10:12.321Z,14.63
2024-01-07T18:12:14.972Z,14.90
2024-01-07T18:14:19.495Z,12.65
2024-01-07T18:16:21.561Z,22.40
2024-01-07T18:20:26.851Z,12.02
2024-01-07T18:22:28.868Z,22.23
2024-01-07T18:24:34.068Z,16.70
2024-01-07T18:26:36.380Z,16.25
2024-01-07T18:28:38.608Z,11.82
2024-01-07T18:30:40.704Z,10.40
2024-01-07T18:32:43.928Z,8.77
2024-01-07T18:34:46.299Z,19.50
2024-01-07T18:36:49.152Z,7.80
2024-01-07T18:38:51.261Z,16.48
2024-01-07T18:40:53.665Z,27.00
2024-01-07T18:42:56.976Z,14.50
2024-01-07T18:44:59.133Z,27.50
2024-01-07T18:47:01.331Z,13.35
2024-01-07T18:49:04.610Z,9.13
2024-01-07T18:51:06.646Z,9.35
2024-01-07T18:53:08.631Z,9.60
2024-01-07T18:55:11.118Z,4.55
2024-01-07T18:57:18.150Z,8.18
2024-01-07T18:59:20.683Z,11.00
2024-01-07T19:01:24.732Z,8.20
2024-01-07T19:03:27.790Z,15.60
2024-01-07T19:05:30.336Z,14.75
2024-01-07T19:07:32.424Z,32.42
2024-01-07T19:09:34.476Z,14.35
2024-01-07T19:11:37.628Z,16.40
2024-01-07T19:13:39.637Z,18.02
2024-01-07T19:15:43.492Z,6.85
2024-01-07T19:17:49.256Z,15.98
2024-01-07T19:19:51.514Z,7.28
2024-01-07T19:21:55.583Z,8.80
2024-01-07T19:23:57.611Z,7.07
2024-01-07T19:25:59.827Z,13.52
2024-01-07T19:28:02.059Z,11.45
2024-01-07T19:30:04.537Z,11.50
2024-01-07T19:32:07.034Z,14.77
2024-01-07T19:34:09.327Z,19.10
2024-01-07T19:36:11.420Z,17.55
2024-01-07T19:38:13.768Z,15.85
2024-01-07T19:40:16.127Z,13.50
2024-01-07T19:42:20.190Z,12.57
2024-01-07T19:44:23.374Z,9.48
2024-01-07T19:46:27.681Z,11.63
2024-01-07T19:48:30.114Z,9.50
2024-01-07T19:50:32.449Z,10.45
2024-01-07T19:52:36.626Z,6.78
2024-01-07T19:54:39.869Z,7.25
2024-01-07T19:56:42.207Z,7.38
2024-01-07T19:58:45.258Z,6.95
2024-01-07T20:00:49.608Z,7.43
2024-01-07T20:02:55.569Z,9.65
2024-01-07T20:04:59.573Z,7.28
2024-01-07T20:07:04.838Z,11.82
2024-01-07T20:09:08.170Z,13.85
2024-01-07T20:11:20.806Z,11.20
2024-01-07T20:13:24.193Z,7.00
2024-01-07T20:15:26.191Z,10.57
2024-01-07T20:17:28.634Z,4.65
2024-01-07T20:19:30.871Z,11.10
2024-01-07T20:21:33.159Z,6.00
2024-01-07T20:23:35.116Z,12.88
2024-01-07T20:25:39.102Z,15.10
2024-01-07T20:27:41.379Z,9.65
2024-01-07T20:29:46.002Z,8.10
2024-01-07T20:31:48.743Z,9.68
2024-01-07T20:33:51.876Z,10.18
2024-01-07T20:35:56.238Z,9.45
2024-01-07T20:37:58.156Z,8.57
2024-01-07T20:40:00.380Z,11.93
2024-01-07T20:42:02.573Z,10.05
2024-01-07T20:44:05.839Z,6.80
2024-01-07T20:46:09.235Z,8.95
2024-01-07T20:48:11.389Z,15.30
2024-01-07T20:50:13.597Z,15.20
2024-01-07T20:52:19.907Z,15.05
2024-01-07T20:54:21.978Z,5.20
2024-01-07T20:56:23.930Z,12.52
2024-01-07T20:58:31.036Z,7.90
2024-01-07T21:00:33.754Z,11.85
2024-01-07T21:02:35.858Z,12.90
2024-01-07T21:04:37.791Z,14.07
2024-01-07T21:08:42.309Z,8.00
2024-01-07T21:10:44.313Z,7.55
2024-01-07T21:12:46.612Z,8.40
2024-01-07T21:14:48.518Z,10.38
2024-01-07T21:18:52.528Z,13.93
2024-01-07T21:20:55.860Z,4.90
2024-01-07T21:22:58.175Z,8.23
2024-01-07T21:25:00.294Z,11.45
2024-01-07T21:27:02.241Z,12.48
2024-01-07T21:31:06.901Z,10.43
2024-01-07T21:33:09.203Z,11.82
2024-01-07T21:35:11.691Z,7.30
2024-01-07T21:37:13.997Z,19.17
2024-01-07T21:39:16.056Z,14.98
2024-01-07T21:41:17.978Z,16.17
2024-01-07T21:43:20.005Z,11.13
2024-01-07T21:45:22.032Z,12.65
2024-01-07T21:47:24.236Z,10.95
2024-01-07T21:49:26.292Z,9.30
2024-01-07T21:51:32.767Z,16.98
2024-01-07T21:53:34.743Z,20.00
2024-01-07T21:55:38.646Z,10.50
2024-01-07T21:57:40.627Z,11.98
2024-01-07T21:59:42.541Z,11.80
2024-01-07T22:03:46.442Z,13.85
2024-01-07T22:05:48.538Z,13.15
2024-01-07T22:07:50.782Z,11.90
2024-01-07T22:09:52.791Z,21.08
2024-01-07T22:11:54.871Z,8.77
2024-01-07T22:13:56.879Z,14.30
2024-01-07T22:15:58.768Z,10.98
2024-01-07T22:20:02.986Z,9.85
2024-01-07T22:22:05.870Z,18.23
2024-01-07T22:24:11.236Z,7.15
2024-01-07T22:26:15.482Z,13.50
2024-01-07T22:28:17.473Z,11.70
2024-01-07T22:30:19.397Z,12.13
2024-01-07T22:32:21.459Z,9.95
2024-01-07T22:34:23.575Z,11.93
2024-01-07T22:36:25.678Z,19.50
2024-01-07T22:38:27.737Z,11.32
2024-01-07T22:40:30.270Z,23.00
2024-01-07T22:42:32.195Z,12.52
2024-01-07T22:44:35.424Z,15.25
2024-01-07T22:46:43.387Z,9.85
2024-01-07T22:48:45.484Z,15.20
2024-01-07T22:50:47.540Z,18.85
2024-01-07T22:52:49.506Z,22.13
2024-01-07T22:54:51.456Z,20.48
2024-01-07T22:56:53.515Z,14.35
2024-01-07T22:58:55.480Z,13.93
2024-01-07T23:00:57.584Z,14.32
2024-01-07T23:02:59.632Z,11.57
2024-01-07T23:05:02.297Z,14.80
2024-01-07T23:07:04.422Z,17.27
2024-01-07T23:09:06.687Z,17.10
2024-01-07T23:11:08.920Z,26.05
2024-01-07T23:13:11.506Z,22.27
2024-01-07T23:15:13.690Z,14.45
2024-01-07T23:17:15.766Z,18.35
2024-01-07T23:19:17.842Z,10.98
2024-01-07T23:21:20.979Z,12.73
2024-01-07T23:23:33.707Z,12.38
2024-01-07T23:25:35.701Z,7.75
2024-01-07T23:27:40.381Z,15.93
2024-01-07T23:29:42.593Z,10.25
2024-01-07T23:31:47.087Z,15.93
2024-01-07T23:33:49.435Z,16.05
2024-01-07T23:35:58.284Z,11.82
2024-01-07T23:38:04.239Z,18.55
2024-01-07T23:40:06.763Z,14.63
2024-01-07T23:42:08.784Z,11.15
2024-01-07T23:44:10.757Z,15.90
2024-01-07T23:46:12.870Z,10.50
2024-01-07T23:48:14.951Z,9.88
2024-01-07T23:50:17.031Z,14.90
2024-01-07T23:52:19.110Z,13.70
2024-01-07T23:54:21.221Z,15.85
2024-01-07T23:56:23.428Z,19.48
2024-01-07T23:58:25.512Z,19.85
